logo
Search for airport 
image banner adimage banner adimage banner ad
image banner ad

CTE3 - Havre St-Pierre

Located in , Canada

ICAO - CTE3, IATA -

Data provided by Airmate  

General information

Coordinates: N50°15'48" W63°33'2"
Elevation is 100 feet MSL.
Magnetic variation is -19.92° East
View others Airports in Quebec

Operational data

Special qualification required
Current time UTC:
Current local time:
Weather at : CYGV - Havre St-Pierre ( 5 km )
METAR: CYGV 131100Z AUTO 05008KT 9SM -SN OVC015 M11/M14 A3017 RMK SLP222
TAF: TAF CYGV 070142Z 0702/0714 03012KT P6SM FEW030 RMK FCST BASED ON AUTO OBS. NXT FCST BY 070800Z
View NOTAMs / SUP AIP / TFR affecting this airport [VIEW]
Communications frequencies: [VIEW]

Runways:

RWY identifierQFULength (ft)Width (ft)SurfaceLDA (ft)
W00WATER

Airport contact information

Address: Canada

Satellite view of CTE3